M/V Bugra Tomba — TCEJ — position and weather

sailwx.info

Track history (hours):
 
Tides and Currents Weather Stations Pressure Air Temp Water Temp Dewpoint Dewpoint Depression Visibility Wind Speed Wind Dir Waves Ship Positions

M/V Bugra Tomba

Last reported at 2015-Jul-30 15:33 UTC. Time now 2015-Jul-31 01:01 UTC.
Position N 32°51' E 034°60'.

Length 99 m; draft 3.6 m.

Type: Cargo ship. MMSI: 271000025.

Date/timePositionNaut miles runAvg speedWind from/ knotsBaromVisibWave heightAir tempDewpointWater temp
2015-Jul-30 15:33N 32°51' E 034°60'0 0.0
2015-Jul-30 14:30N 32°51' E 034°60'0 0.0
2015-Jul-30 13:24N 32°51' E 034°60'0 0.0
2015-Jul-30 10:29N 32°51' E 034°60'0 0.0
2015-Jul-30 09:32N 32°51' E 034°60'0 0.0
2015-Jul-30 08:29N 32°51' E 034°60'0 0.0
2015-Jul-29 18:32N 32°51' E 034°59'0 0.0
2015-Jul-29 16:26N 32°51' E 034°59'0 0.0
2015-Jul-29 15:32N 32°51' E 034°59'3 0.1
2015-Jul-27 17:25N 32°49' E 035°02'0 0.0
2015-Jul-26 22:07N 32°49' E 035°02'0 0.0
2015-Jul-26 21:31N 32°49' E 035°02'0 0.0
2015-Jul-26 19:30N 32°49' E 035°02'3 3.0
2015-Jul-26 18:33N 32°51' E 034°60'1 1.2
2015-Jul-26 17:33N 32°52' E 034°59'7 7.4
2015-Jul-26 16:33N 32°53' E 034°50'8 7.8
2015-Jul-26 15:33N 32°54' E 034°41'8 8.0
2015-Jul-26 14:30N 32°55' E 034°31'8 8.4
2015-Jul-26 13:30N 32°57' E 034°21'35 8.3
2015-Jul-26 09:20N 33°11' E 033°43'7 8.1
2015-Jul-26 08:31N 33°15' E 033°37'8 8.1
2015-Jul-26 07:33N 33°20' E 033°29'8 8.3
2015-Jul-26 06:33N 33°25' E 033°22'10 8.6
2015-Jul-26 05:20N 33°31' E 033°12'7 8.6
2015-Jul-26 04:32N 33°36' E 033°06'9 8.7
2015-Jul-26 03:33N 33°42' E 032°58'9 8.9
2015-Jul-26 02:33N 33°47' E 032°50'9 9.0
2015-Jul-26 01:33N 33°53' E 032°41'9 9.0
2015-Jul-26 00:33N 33°59' E 032°33'10 9.0
2015-Jul-25 23:28N 34°04' E 032°23'8 8.9
2015-Jul-25 22:33N 34°09' E 032°15'9 8.7
2015-Jul-25 21:33N 34°14' E 032°07'11 8.6
2015-Jul-25 20:18N 34°21' E 031°57'9 8.6
2015-Jul-25 19:16N 34°26' E 031°48'6 8.8
2015-Jul-25 18:33N 34°30' E 031°42'9 8.7
2015-Jul-25 17:33N 34°36' E 031°34'  
2015-Jul-22 17:14N 40°54' E 028°47'6 8.7
2015-Jul-22 16:33N 40°57' E 028°54'2 2.3
2015-Jul-22 15:31N 40°59' E 028°55'0 0.0
2015-Jul-22 14:23N 40°59' E 028°55'0 0.0
2015-Jul-22 11:28N 40°59' E 028°55'0 0.0
2015-Jul-22 09:28N 40°59' E 028°55'0 0.0
2015-Jul-22 07:28N 40°59' E 028°55'  
Track history (hours):
 
Tides and Currents Weather Stations Pressure Air Temp Water Temp Dewpoint Dewpoint Depression Visibility Wind Speed Wind Dir Waves Ship Positions

M/V Bugra Tomba

Last reported at 2015-Jul-30 15:33 UTC. Time now 2015-Jul-31 01:01 UTC.
Position N 32°51' E 034°60'.

Length 99 m; draft 3.6 m.

Type: Cargo ship. MMSI: 271000025.

Date/timePositionNaut miles runAvg speedWind from/ knotsBaromVisibWave heightAir tempDewpointWater temp
2015-Jul-30 15:33N 32°51' E 034°60'0 0.0
2015-Jul-30 14:30N 32°51' E 034°60'0 0.0
2015-Jul-30 13:24N 32°51' E 034°60'0 0.0
2015-Jul-30 10:29N 32°51' E 034°60'0 0.0
2015-Jul-30 09:32N 32°51' E 034°60'0 0.0
2015-Jul-30 08:29N 32°51' E 034°60'0 0.0
2015-Jul-29 18:32N 32°51' E 034°59'0 0.0
2015-Jul-29 16:26N 32°51' E 034°59'0 0.0
2015-Jul-29 15:32N 32°51' E 034°59'3 0.1
2015-Jul-27 17:25N 32°49' E 035°02'0 0.0
2015-Jul-26 22:07N 32°49' E 035°02'0 0.0
2015-Jul-26 21:31N 32°49' E 035°02'0 0.0
2015-Jul-26 19:30N 32°49' E 035°02'3 3.0
2015-Jul-26 18:33N 32°51' E 034°60'1 1.2
2015-Jul-26 17:33N 32°52' E 034°59'7 7.4
2015-Jul-26 16:33N 32°53' E 034°50'8 7.8
2015-Jul-26 15:33N 32°54' E 034°41'8 8.0
2015-Jul-26 14:30N 32°55' E 034°31'8 8.4
2015-Jul-26 13:30N 32°57' E 034°21'35 8.3
2015-Jul-26 09:20N 33°11' E 033°43'7 8.1
2015-Jul-26 08:31N 33°15' E 033°37'8 8.1
2015-Jul-26 07:33N 33°20' E 033°29'8 8.3
2015-Jul-26 06:33N 33°25' E 033°22'10 8.6
2015-Jul-26 05:20N 33°31' E 033°12'7 8.6
2015-Jul-26 04:32N 33°36' E 033°06'9 8.7
2015-Jul-26 03:33N 33°42' E 032°58'9 8.9
2015-Jul-26 02:33N 33°47' E 032°50'9 9.0
2015-Jul-26 01:33N 33°53' E 032°41'9 9.0
2015-Jul-26 00:33N 33°59' E 032°33'10 9.0
2015-Jul-25 23:28N 34°04' E 032°23'8 8.9
2015-Jul-25 22:33N 34°09' E 032°15'9 8.7
2015-Jul-25 21:33N 34°14' E 032°07'11 8.6
2015-Jul-25 20:18N 34°21' E 031°57'9 8.6
2015-Jul-25 19:16N 34°26' E 031°48'6 8.8
2015-Jul-25 18:33N 34°30' E 031°42'9 8.7
2015-Jul-25 17:33N 34°36' E 031°34'  
2015-Jul-22 17:14N 40°54' E 028°47'6 8.7
2015-Jul-22 16:33N 40°57' E 028°54'2 2.3
2015-Jul-22 15:31N 40°59' E 028°55'0 0.0
2015-Jul-22 14:23N 40°59' E 028°55'0 0.0
2015-Jul-22 11:28N 40°59' E 028°55'0 0.0
2015-Jul-22 09:28N 40°59' E 028°55'0 0.0
2015-Jul-22 07:28N 40°59' E 028°55'  

Dump ship's entire track history